createdAt,value
2022-10-27T00:01:43.176Z,15.85
2022-10-27T00:04:09.557Z,20.08
2022-10-27T00:06:35.934Z,14.88
2022-10-27T00:09:02.279Z,20.13
2022-10-27T00:11:28.688Z,15.32
2022-10-27T00:13:55.036Z,15.32
2022-10-27T00:16:21.477Z,16.58
2022-10-27T00:18:47.823Z,16.27
2022-10-27T00:21:15.385Z,16.45
2022-10-27T00:23:42.090Z,18.13
2022-10-27T00:26:10.306Z,20.38
2022-10-27T00:28:36.899Z,19.58
2022-10-27T00:31:07.544Z,18.83
2022-10-27T00:33:34.189Z,19.27
2022-10-27T00:36:06.876Z,20.13
2022-10-27T00:38:34.019Z,18.77
2022-10-27T00:41:00.833Z,16.73
2022-10-27T00:43:32.546Z,19.48
2022-10-27T00:46:04.659Z,21.23
2022-10-27T00:48:31.767Z,20.50
2022-10-27T00:50:59.878Z,21.35
2022-10-27T00:53:26.409Z,22.13
2022-10-27T00:55:53.286Z,20.40
2022-10-27T00:58:20.189Z,18.92
2022-10-27T01:00:46.642Z,19.10
2022-10-27T01:03:17.177Z,18.38
2022-10-27T01:05:43.656Z,19.52
2022-10-27T01:08:10.033Z,17.77
2022-10-27T01:10:36.397Z,20.70
2022-10-27T01:13:02.838Z,16.70
2022-10-27T01:15:44.166Z,16.13
2022-10-27T01:18:13.463Z,17.15
2022-10-27T01:20:39.748Z,15.02
2022-10-27T01:23:10.111Z,19.23
2022-10-27T01:25:55.326Z,20.08
2022-10-27T01:28:33.959Z,14.63
2022-10-27T01:31:03.559Z,20.80
2022-10-27T01:33:50.431Z,17.10
2022-10-27T01:36:23.894Z,15.38
2022-10-27T01:38:50.600Z,16.75
2022-10-27T01:41:16.948Z,15.60
2022-10-27T01:43:44.102Z,16.10
2022-10-27T01:46:11.394Z,18.52
2022-10-27T01:48:37.995Z,17.52
2022-10-27T01:51:04.865Z,14.07
2022-10-27T01:53:32.996Z,18.48
2022-10-27T01:56:02.134Z,17.17
2022-10-27T01:58:28.602Z,18.48
2022-10-27T02:00:58.733Z,19.63
2022-10-27T02:03:27.624Z,25.33
2022-10-27T02:06:02.848Z,20.35
2022-10-27T02:08:31.974Z,15.18
2022-10-27T02:11:08.850Z,24.02
2022-10-27T02:13:36.918Z,17.90
2022-10-27T02:16:05.068Z,19.70
2022-10-27T02:18:33.836Z,17.02
2022-10-27T02:23:33.834Z,19.55
2022-10-27T02:26:00.140Z,17.77
2022-10-27T02:28:29.818Z,17.48
2022-10-27T02:30:59.054Z,17.65
2022-10-27T02:33:25.825Z,17.85
2022-10-27T02:35:52.666Z,17.85
2022-10-27T02:38:19.082Z,16.77
2022-10-27T02:40:45.684Z,17.92
2022-10-27T02:43:12.310Z,17.42
2022-10-27T02:45:38.679Z,17.48
2022-10-27T02:48:05.071Z,17.55
2022-10-27T02:50:31.508Z,17.30
2022-10-27T02:52:57.918Z,23.25
2022-10-27T02:55:24.255Z,21.08
2022-10-27T02:57:50.565Z,17.75
2022-10-27T03:00:17.394Z,16.20
2022-10-27T03:02:43.822Z,24.75
2022-10-27T03:05:10.138Z,20.00
2022-10-27T03:07:36.814Z,20.73
2022-10-27T03:10:03.201Z,18.80
2022-10-27T03:12:29.960Z,20.45
2022-10-27T03:14:56.345Z,17.45
2022-10-27T03:17:22.789Z,22.25
2022-10-27T03:19:52.422Z,20.50
2022-10-27T03:22:18.824Z,23.50
2022-10-27T03:24:45.136Z,24.02
2022-10-27T03:27:11.482Z,24.08
2022-10-27T03:29:37.926Z,23.52
2022-10-27T03:32:04.758Z,21.70
2022-10-27T03:34:31.084Z,22.35
2022-10-27T03:36:57.436Z,30.85
2022-10-27T03:39:23.734Z,23.10
2022-10-27T03:41:50.241Z,23.40
2022-10-27T03:44:16.650Z,25.38
2022-10-27T03:46:42.954Z,21.98
2022-10-27T03:49:09.273Z,20.90
2022-10-27T03:51:35.619Z,28.65
2022-10-27T03:54:01.919Z,23.23
2022-10-27T03:56:28.204Z,22.75
2022-10-27T03:58:54.566Z,18.75
2022-10-27T04:01:20.931Z,16.83
2022-10-27T04:03:48.305Z,22.35
2022-10-27T04:06:14.635Z,21.85
2022-10-27T04:08:40.979Z,22.75
2022-10-27T04:11:07.270Z,23.58
2022-10-27T04:13:33.585Z,22.90
2022-10-27T04:16:00.990Z,17.90
2022-10-27T04:18:27.347Z,20.50
2022-10-27T04:20:53.727Z,21.67
2022-10-27T04:23:20.047Z,19.70
2022-10-27T04:25:46.363Z,24.88
2022-10-27T04:28:12.772Z,19.85
2022-10-27T04:30:39.090Z,21.33
2022-10-27T04:33:05.456Z,26.67
2022-10-27T04:35:31.829Z,16.73
2022-10-27T04:37:58.260Z,18.60
2022-10-27T04:40:24.649Z,21.15
2022-10-27T04:42:54.274Z,23.48
2022-10-27T04:45:23.248Z,20.63
2022-10-27T04:47:50.220Z,22.00
2022-10-27T04:50:16.996Z,20.88
2022-10-27T04:52:53.843Z,21.30
2022-10-27T04:55:20.392Z,27.90
2022-10-27T04:57:46.750Z,21.88
2022-10-27T05:00:13.239Z,26.65
2022-10-27T05:02:39.600Z,22.23
2022-10-27T05:05:06.374Z,27.13
2022-10-27T05:07:32.760Z,22.13
2022-10-27T05:09:59.130Z,29.35
2022-10-27T05:12:25.532Z,23.33
2022-10-27T05:14:51.847Z,24.88
2022-10-27T05:17:19.521Z,29.02
2022-10-27T05:19:46.194Z,26.98
2022-10-27T05:22:12.510Z,27.70
2022-10-27T05:24:38.863Z,25.33
2022-10-27T05:27:05.188Z,28.45
2022-10-27T05:29:31.622Z,26.80
2022-10-27T05:31:57.976Z,25.85
2022-10-27T05:34:24.425Z,29.60
2022-10-27T05:36:51.468Z,26.25
2022-10-27T05:39:17.860Z,29.65
2022-10-27T05:41:44.317Z,31.33
2022-10-27T05:44:10.680Z,27.50
2022-10-27T05:46:37.376Z,25.00
2022-10-27T05:49:06.484Z,29.85
2022-10-27T05:51:32.866Z,25.63
2022-10-27T05:53:59.251Z,29.55
2022-10-27T05:56:25.700Z,30.70
2022-10-27T05:58:52.045Z,28.02
2022-10-27T06:01:18.571Z,25.20
2022-10-27T06:03:44.947Z,27.25
2022-10-27T06:06:11.257Z,23.77
2022-10-27T06:08:37.640Z,25.08
2022-10-27T06:11:03.985Z,27.77
2022-10-27T06:13:30.569Z,30.40
2022-10-27T06:15:57.712Z,30.38
2022-10-27T06:18:24.080Z,28.60
2022-10-27T06:20:50.463Z,26.27
2022-10-27T06:23:16.919Z,26.25
2022-10-27T06:25:43.332Z,23.17
2022-10-27T06:28:09.808Z,22.67
2022-10-27T06:30:36.504Z,20.08
2022-10-27T06:33:02.861Z,22.67
2022-10-27T06:35:29.222Z,22.52
2022-10-27T06:37:55.612Z,23.50
2022-10-27T06:40:21.975Z,24.45
2022-10-27T06:43:07.603Z,30.15
2022-10-27T06:45:34.493Z,23.38
2022-10-27T06:48:03.838Z,23.00
2022-10-27T06:52:59.098Z,23.33
2022-10-27T06:55:25.641Z,22.17
2022-10-27T06:57:52.240Z,20.02
2022-10-27T07:00:19.026Z,22.60
2022-10-27T07:02:45.417Z,24.30
2022-10-27T07:05:12.399Z,18.40
2022-10-27T07:07:38.779Z,20.45
2022-10-27T07:10:06.598Z,20.10
2022-10-27T07:12:33.026Z,18.05
2022-10-27T07:14:59.908Z,19.98
2022-10-27T07:17:26.257Z,17.63
2022-10-27T07:19:52.633Z,19.60
2022-10-27T07:22:19.042Z,19.27
2022-10-27T07:24:47.425Z,19.85
2022-10-27T07:27:14.237Z,21.67
2022-10-27T07:29:40.922Z,19.70
2022-10-27T07:32:07.264Z,19.77
2022-10-27T07:34:34.891Z,23.30
2022-10-27T07:37:01.285Z,21.85
2022-10-27T07:39:27.571Z,18.67
2022-10-27T07:41:54.030Z,23.50
2022-10-27T07:44:20.424Z,20.75
2022-10-27T07:46:46.740Z,17.75
2022-10-27T07:49:13.040Z,18.85
2022-10-27T07:51:39.377Z,17.70
2022-10-27T07:54:05.784Z,19.38
2022-10-27T07:56:32.818Z,20.67
2022-10-27T07:58:59.372Z,17.73
2022-10-27T08:01:27.208Z,14.38
2022-10-27T08:03:53.792Z,17.55
2022-10-27T08:06:20.651Z,14.65
2022-10-27T08:08:49.865Z,16.45
2022-10-27T08:11:16.582Z,14.98
2022-10-27T08:13:42.897Z,12.25
2022-10-27T08:16:09.245Z,14.43
2022-10-27T08:18:35.545Z,11.60
2022-10-27T08:21:04.478Z,14.32
2022-10-27T08:23:30.808Z,14.30
2022-10-27T08:25:57.152Z,18.38
2022-10-27T08:28:24.618Z,16.20
2022-10-27T08:30:52.619Z,17.38
2022-10-27T08:33:21.813Z,13.23
2022-10-27T08:35:48.623Z,16.52
2022-10-27T08:38:16.402Z,15.85
2022-10-27T08:41:02.845Z,18.70
2022-10-27T08:43:35.492Z,14.98
2022-10-27T08:46:06.518Z,13.95
2022-10-27T08:48:36.006Z,17.42
2022-10-27T08:51:02.684Z,15.32
2022-10-27T08:53:30.705Z,14.75
2022-10-27T08:56:09.046Z,13.45
2022-10-27T08:58:41.452Z,15.00
2022-10-27T09:01:15.324Z,15.50
2022-10-27T09:03:45.028Z,17.55
2022-10-27T09:06:17.781Z,13.27
2022-10-27T09:08:54.481Z,14.57
2022-10-27T09:11:20.797Z,18.00
2022-10-27T09:13:47.096Z,17.70
2022-10-27T09:16:15.546Z,17.70
2022-10-27T09:18:48.246Z,15.83
2022-10-27T09:21:37.660Z,16.80
2022-10-27T09:24:06.808Z,16.52
2022-10-27T09:26:33.746Z,14.32
2022-10-27T09:29:02.341Z,15.43
2022-10-27T09:31:35.086Z,14.10
2022-10-27T09:34:05.178Z,13.32
2022-10-27T09:36:34.124Z,17.10
2022-10-27T09:39:00.453Z,19.63
2022-10-27T09:41:26.980Z,14.85
2022-10-27T09:43:58.595Z,18.73
2022-10-27T09:46:28.305Z,18.90
2022-10-27T09:48:56.743Z,17.65
2022-10-27T09:51:25.076Z,21.83
2022-10-27T09:53:52.870Z,22.97
2022-10-27T09:56:26.612Z,18.23
2022-10-27T09:58:58.677Z,17.27
2022-10-27T10:01:25.819Z,16.30
2022-10-27T10:03:54.215Z,17.85
2022-10-27T10:06:29.979Z,14.77
2022-10-27T10:08:58.148Z,17.90
2022-10-27T10:11:24.496Z,16.30
2022-10-27T10:14:01.415Z,17.48
2022-10-27T10:16:30.822Z,14.63
2022-10-27T10:19:08.407Z,18.02
2022-10-27T10:21:45.580Z,16.80
2022-10-27T10:24:41.652Z,14.43
2022-10-27T10:27:08.165Z,17.45
2022-10-27T10:29:46.342Z,14.02
2022-10-27T10:32:17.318Z,14.38
2022-10-27T10:34:43.745Z,19.65
2022-10-27T10:37:32.098Z,14.52
2022-10-27T10:40:23.573Z,18.65
2022-10-27T10:42:59.858Z,10.77
2022-10-27T10:45:27.709Z,14.98
2022-10-27T10:47:56.755Z,14.82
2022-10-27T10:50:23.502Z,15.00
2022-10-27T10:52:51.888Z,15.18
2022-10-27T10:55:34.195Z,13.73
2022-10-27T10:58:01.095Z,15.93
2022-10-27T11:00:27.583Z,16.52
2022-10-27T11:03:05.581Z,16.85
2022-10-27T11:05:33.018Z,17.45
2022-10-27T11:07:59.786Z,11.70
2022-10-27T11:10:28.001Z,13.80
2022-10-27T11:12:54.693Z,15.10
2022-10-27T11:15:27.670Z,17.50
2022-10-27T11:17:56.451Z,15.52
2022-10-27T11:20:25.434Z,13.32
2022-10-27T11:22:52.570Z,18.40
2022-10-27T11:25:21.034Z,15.10
2022-10-27T11:28:00.886Z,14.23
2022-10-27T11:30:28.308Z,16.80
2022-10-27T11:33:15.996Z,16.15
2022-10-27T11:35:45.122Z,14.52
2022-10-27T11:38:19.092Z,16.67
2022-10-27T11:41:02.546Z,19.55
2022-10-27T11:43:44.776Z,18.75
2022-10-27T11:46:16.313Z,15.15
2022-10-27T11:48:45.691Z,17.55
2022-10-27T11:51:15.750Z,21.60
2022-10-27T11:53:42.239Z,13.68
2022-10-27T11:56:17.822Z,18.98
2022-10-27T11:58:56.521Z,17.95
2022-10-27T12:01:33.420Z,21.10
2022-10-27T12:03:59.871Z,17.70
2022-10-27T12:06:26.281Z,22.95
2022-10-27T12:09:00.310Z,15.82
2022-10-27T12:11:32.354Z,16.02
2022-10-27T12:14:17.591Z,16.90
2022-10-27T12:16:50.876Z,16.45
2022-10-27T12:19:18.985Z,14.73
2022-10-27T12:21:50.051Z,17.45
2022-10-27T12:24:16.525Z,22.02
2022-10-27T12:26:45.730Z,18.17
2022-10-27T12:32:05.824Z,13.95
2022-10-27T12:34:37.065Z,19.67
2022-10-27T12:37:23.325Z,16.95
2022-10-27T12:40:00.843Z,15.10
2022-10-27T12:42:37.473Z,20.58
2022-10-27T12:45:26.943Z,16.15
2022-10-27T12:48:09.320Z,18.85
2022-10-27T12:51:00.098Z,15.25
2022-10-27T12:56:30.203Z,16.00
2022-10-27T12:59:16.402Z,13.13
2022-10-27T13:02:14.432Z,15.93
2022-10-27T13:04:43.793Z,11.65
2022-10-27T13:07:13.924Z,23.55
2022-10-27T13:09:48.782Z,16.20
2022-10-27T13:12:21.173Z,14.77
2022-10-27T13:15:03.217Z,14.05
2022-10-27T13:17:48.422Z,19.58
2022-10-27T13:20:33.617Z,16.35
2022-10-27T13:23:07.427Z,18.08
2022-10-27T13:25:43.983Z,18.30
2022-10-27T13:28:26.279Z,17.23
2022-10-27T13:30:58.062Z,16.73
2022-10-27T13:33:35.655Z,17.50
2022-10-27T13:36:15.469Z,12.13
2022-10-27T13:38:47.193Z,17.13
2022-10-27T13:41:39.506Z,15.68
2022-10-27T13:44:28.740Z,16.05
2022-10-27T13:47:06.643Z,14.93
2022-10-27T13:49:42.597Z,17.48
2022-10-27T13:52:15.491Z,20.15
2022-10-27T13:55:02.100Z,14.35
2022-10-27T13:57:31.234Z,19.52
2022-10-27T14:02:41.891Z,17.92
2022-10-27T14:05:18.515Z,23.00
2022-10-27T14:07:47.620Z,16.67
2022-10-27T14:12:41.248Z,18.10
2022-10-27T14:15:16.312Z,15.55
2022-10-27T14:17:44.435Z,21.98
2022-10-27T14:20:42.380Z,23.33
2022-10-27T14:26:35.890Z,21.95
2022-10-27T14:29:02.567Z,24.55
2022-10-27T14:31:30.291Z,20.67
2022-10-27T14:34:13.887Z,18.98
2022-10-27T14:36:40.496Z,16.58
2022-10-27T14:39:12.817Z,22.83
2022-10-27T14:41:48.671Z,25.65
2022-10-27T14:44:16.860Z,21.77
2022-10-27T14:46:45.160Z,25.27
2022-10-27T14:49:35.173Z,28.67
2022-10-27T14:52:03.930Z,23.27
2022-10-27T14:54:30.521Z,21.02
2022-10-27T14:57:21.787Z,23.40
2022-10-27T14:59:48.132Z,17.92
2022-10-27T15:02:14.659Z,22.65
2022-10-27T15:04:41.155Z,22.27
2022-10-27T15:07:12.050Z,22.80
2022-10-27T15:09:42.366Z,18.67
2022-10-27T15:12:44.348Z,21.90
2022-10-27T15:15:11.267Z,21.00
2022-10-27T15:17:37.682Z,19.27
2022-10-27T15:20:06.251Z,22.35
2022-10-27T15:22:33.177Z,17.35
2022-10-27T15:24:59.739Z,17.50
2022-10-27T15:27:33.371Z,16.02
2022-10-27T15:30:00.562Z,22.30
2022-10-27T15:32:32.551Z,23.13
2022-10-27T15:34:59.201Z,15.55
2022-10-27T15:37:27.087Z,19.27
2022-10-27T15:39:54.191Z,16.83
2022-10-27T15:42:22.802Z,25.63
2022-10-27T15:44:49.522Z,27.50
2022-10-27T15:47:35.127Z,28.40
2022-10-27T15:50:01.545Z,24.27
2022-10-27T15:52:30.971Z,23.77
2022-10-27T15:57:34.208Z,22.02
2022-10-27T16:00:12.796Z,22.90
2022-10-27T16:02:48.133Z,22.30
2022-10-27T16:05:29.529Z,22.98
2022-10-27T16:08:17.267Z,30.08
2022-10-27T16:10:43.786Z,24.65
2022-10-27T16:13:13.334Z,21.30
2022-10-27T16:15:43.344Z,27.95
2022-10-27T16:18:11.810Z,29.35
2022-10-27T16:20:42.948Z,29.97
2022-10-27T16:23:13.270Z,25.73
2022-10-27T16:25:42.121Z,31.42
2022-10-27T16:28:13.097Z,20.27
2022-10-27T16:30:40.689Z,27.52
2022-10-27T16:33:07.179Z,25.90
2022-10-27T16:35:33.638Z,35.05
2022-10-27T16:38:01.139Z,33.95
2022-10-27T16:40:28.123Z,32.00
2022-10-27T16:42:56.976Z,27.88
2022-10-27T16:45:23.481Z,31.92
2022-10-27T16:47:50.707Z,30.30
2022-10-27T16:50:17.791Z,31.15
2022-10-27T16:52:44.581Z,36.65
2022-10-27T16:55:12.297Z,34.20
2022-10-27T16:57:39.144Z,31.83
2022-10-27T17:00:20.818Z,35.70
2022-10-27T17:02:48.916Z,36.05
2022-10-27T17:05:15.333Z,35.28
2022-10-27T17:07:46.265Z,38.65
2022-10-27T17:10:16.353Z,36.38
2022-10-27T17:12:43.126Z,38.75
2022-10-27T17:15:09.714Z,37.78
2022-10-27T17:17:36.091Z,36.10
2022-10-27T17:20:02.488Z,40.05
2022-10-27T17:22:29.520Z,40.38
2022-10-27T17:24:56.177Z,45.55
2022-10-27T17:27:22.537Z,34.90
2022-10-27T17:29:48.964Z,32.67
2022-10-27T17:32:15.275Z,36.90
2022-10-27T17:34:43.368Z,30.27
2022-10-27T17:37:11.603Z,27.20
2022-10-27T17:39:38.132Z,26.52
2022-10-27T17:42:04.935Z,30.85
2022-10-27T17:44:31.399Z,25.92
2022-10-27T17:46:57.837Z,26.67
2022-10-27T17:49:24.223Z,30.50
2022-10-27T17:51:50.951Z,25.80
2022-10-27T17:54:17.340Z,24.50
2022-10-27T17:56:43.767Z,25.90
2022-10-27T17:59:15.045Z,27.20
2022-10-27T18:01:41.960Z,23.15
2022-10-27T18:04:09.954Z,24.55
2022-10-27T18:06:37.334Z,23.67
2022-10-27T18:09:04.229Z,24.15
2022-10-27T18:11:31.922Z,21.77
2022-10-27T18:14:03.023Z,21.83
2022-10-27T18:16:31.106Z,27.98
2022-10-27T18:18:59.373Z,21.10
2022-10-27T18:21:26.133Z,18.88
2022-10-27T18:23:55.032Z,18.13
2022-10-27T18:26:21.708Z,23.60
2022-10-27T18:28:48.540Z,16.38
2022-10-27T18:31:15.876Z,17.77
2022-10-27T18:33:42.396Z,16.67
2022-10-27T18:36:10.548Z,14.60
2022-10-27T18:38:36.954Z,17.48
2022-10-27T18:41:04.846Z,16.02
2022-10-27T18:43:31.372Z,15.25
2022-10-27T18:46:05.236Z,18.40
2022-10-27T18:48:31.832Z,15.13
2022-10-27T18:50:59.715Z,17.40
2022-10-27T18:53:26.627Z,18.00
2022-10-27T18:55:53.202Z,20.38
2022-10-27T18:58:19.567Z,17.65
2022-10-27T19:00:46.059Z,19.63
2022-10-27T19:03:12.472Z,17.65
2022-10-27T19:05:38.834Z,17.67
2022-10-27T19:08:05.521Z,15.77
2022-10-27T19:10:32.339Z,16.67
2022-10-27T19:12:59.045Z,19.40
2022-10-27T19:15:27.191Z,20.45
2022-10-27T19:17:55.906Z,20.55
2022-10-27T19:20:22.473Z,15.18
2022-10-27T19:22:49.311Z,17.10
2022-10-27T19:25:15.744Z,13.02
2022-10-27T19:27:42.220Z,14.07
2022-10-27T19:30:09.270Z,14.90
2022-10-27T19:32:35.622Z,15.85
2022-10-27T19:35:02.090Z,12.23
2022-10-27T19:37:28.504Z,13.68
2022-10-27T19:39:54.903Z,19.33
2022-10-27T19:42:21.390Z,13.73
2022-10-27T19:44:53.249Z,16.77
2022-10-27T19:47:19.666Z,15.45
2022-10-27T19:49:46.043Z,16.92
2022-10-27T19:52:12.425Z,13.85
2022-10-27T19:54:38.998Z,14.43
2022-10-27T19:57:43.032Z,15.13
2022-10-27T20:00:18.769Z,11.57
2022-10-27T20:02:45.259Z,12.15
2022-10-27T20:05:11.665Z,14.88
2022-10-27T20:07:38.073Z,12.43
2022-10-27T20:10:04.614Z,14.27
2022-10-27T20:12:31.004Z,13.15
2022-10-27T20:14:57.538Z,13.32
2022-10-27T20:17:24.144Z,14.07
2022-10-27T20:19:50.783Z,13.43
2022-10-27T20:22:17.169Z,12.35
2022-10-27T20:24:43.564Z,13.75
2022-10-27T20:27:09.913Z,13.55
2022-10-27T20:29:36.295Z,14.57
2022-10-27T20:32:02.758Z,17.25
2022-10-27T20:34:29.118Z,17.60
2022-10-27T20:36:55.460Z,19.38
2022-10-27T20:39:23.473Z,15.98
2022-10-27T20:41:49.957Z,13.35
2022-10-27T20:44:16.798Z,21.90
2022-10-27T20:46:43.198Z,16.95
2022-10-27T20:49:09.590Z,15.20
2022-10-27T20:51:36.022Z,17.52
2022-10-27T20:54:03.230Z,18.42
2022-10-27T20:56:30.672Z,22.08
2022-10-27T20:58:57.366Z,18.23
2022-10-27T21:01:37.846Z,18.48
2022-10-27T21:04:08.692Z,18.30
2022-10-27T21:06:36.793Z,21.45
2022-10-27T21:09:04.932Z,19.17
2022-10-27T21:11:31.908Z,16.52
2022-10-27T21:13:59.380Z,17.98
2022-10-27T21:17:02.272Z,18.08
2022-10-27T21:19:28.728Z,18.33
2022-10-27T21:21:56.279Z,18.00
2022-10-27T21:24:25.900Z,16.58
2022-10-27T21:26:52.435Z,23.38
2022-10-27T21:29:18.769Z,19.50
2022-10-27T21:31:46.599Z,14.75
2022-10-27T21:34:13.893Z,13.20
2022-10-27T21:36:40.313Z,25.08
2022-10-27T21:39:08.138Z,17.38
2022-10-27T21:41:34.874Z,18.88
2022-10-27T21:44:01.205Z,20.80
2022-10-27T21:46:29.070Z,18.80
2022-10-27T21:48:56.147Z,16.42
2022-10-27T21:51:22.835Z,20.23
2022-10-27T21:53:57.686Z,19.90
2022-10-27T21:56:26.397Z,15.98
2022-10-27T21:58:52.804Z,19.90
2022-10-27T22:01:20.613Z,17.55
2022-10-27T22:03:48.460Z,18.25
2022-10-27T22:06:25.882Z,18.88
2022-10-27T22:08:52.545Z,17.45
2022-10-27T22:11:20.172Z,20.92
2022-10-27T22:13:46.610Z,14.82
2022-10-27T22:16:14.458Z,19.85
2022-10-27T22:18:41.657Z,17.95
2022-10-27T22:21:09.127Z,18.27
2022-10-27T22:23:35.789Z,18.45
2022-10-27T22:26:03.923Z,20.58
2022-10-27T22:28:30.338Z,18.10
2022-10-27T22:30:56.769Z,13.98
2022-10-27T22:33:23.088Z,18.73
2022-10-27T22:35:49.468Z,17.38
2022-10-27T22:38:15.830Z,15.68
2022-10-27T22:40:42.214Z,17.83
2022-10-27T22:43:08.552Z,17.35
2022-10-27T22:45:34.867Z,19.35
2022-10-27T22:48:01.173Z,17.75
2022-10-27T22:50:27.533Z,16.85
2022-10-27T22:52:53.864Z,15.75
2022-10-27T22:55:20.223Z,16.98
2022-10-27T22:57:46.585Z,17.35
2022-10-27T23:00:13.105Z,18.45
2022-10-27T23:02:39.458Z,14.15
2022-10-27T23:05:05.936Z,16.90
2022-10-27T23:07:32.297Z,16.92
2022-10-27T23:09:58.608Z,15.27
2022-10-27T23:12:25.097Z,18.02
2022-10-27T23:14:54.340Z,16.45
2022-10-27T23:17:20.689Z,16.25
2022-10-27T23:19:47.192Z,16.63
2022-10-27T23:22:13.647Z,15.43
2022-10-27T23:24:46.318Z,13.75
2022-10-27T23:27:13.154Z,18.05
2022-10-27T23:29:39.552Z,15.65
2022-10-27T23:32:05.867Z,16.30
2022-10-27T23:34:32.239Z,16.23
2022-10-27T23:36:58.557Z,13.60
2022-10-27T23:39:24.966Z,12.65
2022-10-27T23:41:53.417Z,13.23
2022-10-27T23:44:19.765Z,18.93
2022-10-27T23:46:46.068Z,12.32
2022-10-27T23:49:12.381Z,12.00
2022-10-27T23:51:38.724Z,17.48
2022-10-27T23:54:05.040Z,14.45
2022-10-27T23:56:31.990Z,14.70
2022-10-27T23:58:59.162Z,12.43
